createdAt,value
2022-12-06T00:02:23.070Z,10.60
2022-12-06T00:05:10.339Z,9.17
2022-12-06T00:07:57.541Z,9.20
2022-12-06T00:10:44.839Z,8.90
2022-12-06T00:13:32.042Z,9.10
2022-12-06T00:16:19.305Z,9.27
2022-12-06T00:19:06.905Z,8.00
2022-12-06T00:21:54.711Z,9.33
2022-12-06T00:24:42.056Z,8.80
2022-12-06T00:27:29.257Z,9.43
2022-12-06T00:30:16.589Z,8.50
2022-12-06T00:33:03.705Z,8.60
2022-12-06T00:36:02.440Z,8.73
2022-12-06T00:38:50.515Z,9.33
2022-12-06T00:41:37.573Z,8.13
2022-12-06T00:44:25.046Z,8.57
2022-12-06T00:47:12.229Z,8.27
2022-12-06T00:49:59.905Z,8.00
2022-12-06T00:52:47.228Z,8.40
2022-12-06T00:55:34.338Z,8.57
2022-12-06T00:58:22.410Z,7.80
2022-12-06T01:01:18.738Z,9.30
2022-12-06T01:04:06.865Z,8.50
2022-12-06T01:06:54.342Z,9.43
2022-12-06T01:09:42.597Z,9.17
2022-12-06T01:12:29.831Z,8.23
2022-12-06T01:15:17.118Z,7.63
2022-12-06T01:18:05.089Z,9.33
2022-12-06T01:20:52.405Z,8.20
2022-12-06T01:26:22.829Z,8.40
2022-12-06T01:29:10.655Z,7.80
2022-12-06T01:31:57.658Z,9.03
2022-12-06T01:37:12.837Z,7.97
2022-12-06T01:40:00.461Z,8.80
2022-12-06T01:42:47.956Z,8.50
2022-12-06T01:45:35.459Z,9.50
2022-12-06T01:48:25.980Z,9.17
2022-12-06T01:51:15.625Z,10.47
2022-12-06T01:54:05.644Z,10.17
2022-12-06T01:56:55.887Z,9.13
2022-12-06T01:59:44.014Z,9.00
2022-12-06T02:02:31.409Z,7.90
2022-12-06T02:05:18.717Z,8.90
2022-12-06T02:08:08.285Z,9.50
2022-12-06T02:10:55.983Z,9.10
2022-12-06T02:13:43.236Z,9.00
2022-12-06T02:16:51.567Z,8.00
2022-12-06T02:19:47.711Z,9.63
2022-12-06T02:23:13.046Z,9.50
2022-12-06T02:26:12.043Z,9.07
2022-12-06T02:29:22.398Z,8.33
2022-12-06T02:32:19.493Z,8.80
2022-12-06T02:35:33.182Z,9.37
2022-12-06T02:38:32.966Z,8.87
2022-12-06T02:41:30.129Z,7.83
2022-12-06T02:44:25.281Z,9.93
2022-12-06T02:47:14.643Z,9.20
2022-12-06T02:50:06.335Z,7.87
2022-12-06T02:52:56.972Z,9.37
2022-12-06T02:55:45.128Z,9.37
2022-12-06T02:58:39.204Z,8.00
2022-12-06T03:01:30.843Z,9.57
2022-12-06T03:04:31.623Z,9.50
2022-12-06T03:07:43.640Z,9.17
2022-12-06T03:10:44.836Z,9.53
2022-12-06T03:14:08.294Z,10.33
2022-12-06T03:17:04.036Z,10.40
2022-12-06T03:20:07.310Z,9.47
2022-12-06T03:23:02.303Z,8.77
2022-12-06T03:25:52.051Z,9.30
2022-12-06T03:28:39.869Z,10.20
2022-12-06T03:31:30.584Z,9.20
2022-12-06T03:34:30.064Z,9.20
2022-12-06T03:37:21.565Z,9.60
2022-12-06T03:40:21.200Z,9.90
2022-12-06T03:43:08.628Z,10.00
2022-12-06T03:46:00.395Z,9.93
2022-12-06T03:48:55.712Z,9.97
2022-12-06T03:51:44.525Z,10.50
2022-12-06T03:54:31.559Z,11.30
2022-12-06T03:57:19.050Z,9.50
2022-12-06T04:00:07.291Z,8.83
2022-12-06T04:02:54.543Z,10.10
2022-12-06T04:05:41.725Z,10.13
2022-12-06T04:08:28.789Z,10.00
2022-12-06T04:11:15.844Z,9.73
2022-12-06T04:14:02.888Z,11.30
2022-12-06T04:17:08.697Z,10.30
2022-12-06T04:19:55.945Z,9.37
2022-12-06T04:23:01.651Z,8.87
2022-12-06T04:25:48.989Z,8.33
2022-12-06T04:28:55.160Z,8.07
2022-12-06T04:32:01.430Z,8.63
2022-12-06T04:35:07.400Z,8.67
2022-12-06T04:38:17.228Z,8.20
2022-12-06T04:41:04.501Z,10.10
2022-12-06T04:43:51.506Z,9.00
2022-12-06T04:46:38.695Z,8.50
2022-12-06T04:49:26.667Z,9.10
2022-12-06T04:52:14.770Z,9.40
2022-12-06T04:55:01.836Z,9.27
2022-12-06T04:57:48.945Z,8.70
2022-12-06T05:00:36.011Z,9.20
2022-12-06T05:03:23.345Z,9.07
2022-12-06T05:06:10.431Z,8.90
2022-12-06T05:08:57.540Z,9.50
2022-12-06T05:11:44.623Z,8.80
2022-12-06T05:14:31.760Z,9.07
2022-12-06T05:17:18.925Z,10.30
2022-12-06T05:20:07.077Z,8.43
2022-12-06T05:22:54.289Z,9.30
2022-12-06T05:25:41.865Z,8.27
2022-12-06T05:28:30.173Z,9.20
2022-12-06T05:31:17.979Z,8.80
2022-12-06T05:34:05.121Z,9.20
2022-12-06T05:36:52.244Z,9.10
2022-12-06T05:39:39.310Z,8.97
2022-12-06T05:42:26.512Z,7.90
2022-12-06T05:45:13.678Z,8.60
2022-12-06T05:48:01.001Z,9.27
2022-12-06T05:50:48.948Z,8.57
2022-12-06T05:53:36.347Z,9.73
2022-12-06T05:56:23.720Z,9.63
2022-12-06T05:59:11.099Z,9.67
2022-12-06T06:01:58.512Z,9.23
2022-12-06T06:04:45.673Z,9.10
2022-12-06T06:07:32.858Z,10.77
2022-12-06T06:10:20.064Z,8.97
2022-12-06T06:13:07.337Z,10.70
2022-12-06T06:15:54.583Z,8.80
2022-12-06T06:18:41.818Z,9.40
2022-12-06T06:21:28.875Z,8.20
2022-12-06T06:24:16.601Z,9.83
2022-12-06T06:27:04.286Z,10.97
2022-12-06T06:29:51.572Z,8.80
2022-12-06T06:32:38.933Z,11.00
2022-12-06T06:35:26.225Z,8.90
2022-12-06T06:38:13.283Z,8.23
2022-12-06T06:41:04.853Z,10.10
2022-12-06T06:43:51.975Z,9.40
2022-12-06T06:46:39.168Z,8.40
2022-12-06T06:49:26.382Z,9.73
2022-12-06T06:52:13.755Z,8.50
2022-12-06T06:55:00.850Z,8.67
2022-12-06T06:57:48.025Z,9.47
2022-12-06T07:00:36.000Z,8.53
2022-12-06T07:03:23.787Z,8.50
2022-12-06T07:06:11.606Z,9.90
2022-12-06T07:08:58.830Z,9.47
2022-12-06T07:11:45.899Z,9.20
2022-12-06T07:14:33.251Z,8.80
2022-12-06T07:17:20.590Z,8.57
2022-12-06T07:20:08.206Z,8.47
2022-12-06T07:22:55.972Z,8.73
2022-12-06T07:25:43.238Z,8.37
2022-12-06T07:28:30.565Z,10.07
2022-12-06T07:31:19.181Z,8.73
2022-12-06T07:34:06.759Z,9.10
2022-12-06T07:36:53.795Z,9.40
2022-12-06T07:39:41.310Z,8.80
2022-12-06T07:42:47.233Z,9.37
2022-12-06T07:45:34.322Z,9.33
2022-12-06T07:48:21.425Z,8.90
2022-12-06T07:51:09.122Z,10.23
2022-12-06T07:53:56.138Z,8.50
2022-12-06T07:56:44.043Z,8.03
2022-12-06T07:59:31.139Z,9.20
2022-12-06T08:02:21.327Z,8.57
2022-12-06T08:05:08.808Z,8.67
2022-12-06T08:07:56.035Z,8.77
2022-12-06T08:10:43.141Z,8.10
2022-12-06T08:13:30.538Z,8.50
2022-12-06T08:16:18.089Z,10.33
2022-12-06T08:19:05.273Z,8.77
2022-12-06T08:21:52.892Z,9.60
2022-12-06T08:24:40.080Z,7.90
2022-12-06T08:27:27.527Z,9.50
2022-12-06T08:30:14.868Z,8.87
2022-12-06T08:33:01.929Z,9.50
2022-12-06T08:35:50.354Z,7.60
2022-12-06T08:38:38.237Z,8.73
2022-12-06T08:41:44.700Z,8.70
2022-12-06T08:44:32.760Z,7.97
2022-12-06T08:47:20.353Z,8.33
2022-12-06T08:50:07.893Z,8.30
2022-12-06T08:52:55.025Z,9.27
2022-12-06T08:55:42.128Z,7.50
2022-12-06T08:58:29.497Z,7.67
2022-12-06T09:01:19.843Z,8.23
2022-12-06T09:04:08.973Z,7.20
2022-12-06T09:06:56.164Z,8.87
2022-12-06T09:09:43.551Z,8.53
2022-12-06T09:12:30.626Z,7.37
2022-12-06T09:15:18.907Z,7.80
2022-12-06T09:18:06.144Z,10.30
2022-12-06T09:20:53.424Z,9.97
2022-12-06T09:23:40.989Z,7.67
2022-12-06T09:26:28.928Z,8.50
2022-12-06T09:29:16.982Z,8.53
2022-12-06T09:32:04.455Z,7.83
2022-12-06T09:34:51.863Z,7.10
2022-12-06T09:37:39.093Z,9.40
2022-12-06T09:40:29.365Z,8.20
2022-12-06T09:43:40.604Z,7.10
2022-12-06T09:46:33.892Z,7.27
2022-12-06T09:49:24.053Z,6.80
2022-12-06T09:52:39.880Z,7.33
2022-12-06T09:55:33.512Z,7.80
2022-12-06T09:58:39.151Z,6.17
2022-12-06T10:01:40.893Z,8.70
2022-12-06T10:04:31.043Z,6.20
2022-12-06T10:07:44.264Z,7.40
2022-12-06T10:10:40.128Z,6.27
2022-12-06T10:14:02.840Z,7.67
2022-12-06T10:17:18.362Z,6.90
2022-12-06T10:20:22.632Z,7.60
2022-12-06T10:23:10.373Z,6.00
2022-12-06T10:26:03.125Z,7.33
2022-12-06T10:29:17.511Z,6.43
2022-12-06T10:32:37.458Z,5.87
2022-12-06T10:36:05.438Z,6.00
2022-12-06T10:38:59.628Z,6.50
2022-12-06T10:41:54.935Z,7.07
2022-12-06T10:44:48.861Z,5.77
2022-12-06T10:47:43.154Z,5.80
2022-12-06T10:50:34.201Z,5.90
2022-12-06T10:53:26.420Z,6.27
2022-12-06T10:56:21.055Z,6.70
2022-12-06T10:59:43.318Z,5.70
2022-12-06T11:02:41.797Z,7.30
2022-12-06T11:05:42.482Z,6.73
2022-12-06T11:08:48.914Z,6.17
2022-12-06T11:11:39.313Z,6.10
2022-12-06T11:14:38.381Z,5.87
2022-12-06T11:17:30.464Z,6.23
2022-12-06T11:20:28.886Z,6.47
2022-12-06T11:23:27.579Z,6.00
2022-12-06T11:26:41.652Z,5.90
2022-12-06T11:29:29.024Z,6.23
2022-12-06T11:32:18.538Z,7.60
2022-12-06T11:35:05.968Z,5.77
2022-12-06T11:37:57.626Z,5.93
2022-12-06T11:40:48.803Z,6.60
2022-12-06T11:43:36.864Z,6.60
2022-12-06T11:46:24.864Z,5.53
2022-12-06T11:49:19.053Z,5.00
2022-12-06T11:52:13.622Z,5.90
2022-12-06T11:55:06.521Z,6.37
2022-12-06T11:58:01.853Z,5.13
2022-12-06T12:00:57.199Z,5.97
2022-12-06T12:03:47.362Z,5.73
2022-12-06T12:06:36.727Z,5.50
2022-12-06T12:09:26.937Z,5.90
2022-12-06T12:12:21.094Z,5.33
2022-12-06T12:15:19.580Z,5.77
2022-12-06T12:18:16.519Z,5.30
2022-12-06T12:21:06.945Z,5.10
2022-12-06T12:23:54.073Z,6.30
2022-12-06T12:26:42.268Z,6.13
2022-12-06T12:29:29.859Z,6.50
2022-12-06T12:32:18.409Z,5.40
2022-12-06T12:35:42.415Z,9.13
2022-12-06T12:38:35.409Z,6.00
2022-12-06T12:41:44.107Z,6.20
2022-12-06T12:44:39.487Z,6.93
2022-12-06T12:47:27.692Z,5.27
2022-12-06T12:50:15.394Z,4.57
2022-12-06T12:53:02.537Z,4.50
2022-12-06T12:56:13.550Z,5.33
2022-12-06T12:59:06.740Z,5.53
2022-12-06T13:02:11.481Z,5.40
2022-12-06T13:05:35.765Z,5.40
2022-12-06T13:08:36.088Z,5.67
2022-12-06T13:11:23.300Z,6.20
2022-12-06T13:14:19.087Z,6.57
2022-12-06T13:17:08.783Z,5.57
2022-12-06T13:19:58.269Z,5.53
2022-12-06T13:22:47.353Z,5.90
2022-12-06T13:25:34.944Z,5.93
2022-12-06T13:28:27.987Z,5.20
2022-12-06T13:31:19.505Z,5.30
2022-12-06T13:34:45.863Z,5.60
2022-12-06T13:37:43.276Z,5.70
2022-12-06T13:40:33.063Z,5.50
2022-12-06T13:43:26.070Z,5.30
2022-12-06T13:46:22.311Z,5.10
2022-12-06T13:49:48.644Z,5.80
2022-12-06T13:52:41.975Z,5.77
2022-12-06T13:55:29.419Z,4.80
2022-12-06T13:58:16.450Z,5.60
2022-12-06T14:01:03.628Z,5.83
2022-12-06T14:04:01.948Z,5.33
2022-12-06T14:06:48.929Z,4.70
2022-12-06T14:09:41.464Z,5.13
2022-12-06T14:12:29.139Z,4.83
2022-12-06T14:15:19.843Z,5.53
2022-12-06T14:18:18.859Z,5.43
2022-12-06T14:21:06.410Z,5.60
2022-12-06T14:23:53.809Z,5.70
2022-12-06T14:26:40.872Z,5.73
2022-12-06T14:29:27.881Z,4.37
2022-12-06T14:32:17.479Z,4.50
2022-12-06T14:35:11.502Z,5.10
2022-12-06T14:38:01.852Z,5.00
2022-12-06T14:41:09.148Z,5.17
2022-12-06T14:43:56.195Z,4.90
2022-12-06T14:46:45.396Z,5.60
2022-12-06T14:54:50.557Z,4.93
2022-12-06T15:03:12.056Z,5.17
2022-12-06T15:06:15.302Z,4.70
2022-12-06T15:09:02.416Z,5.37
2022-12-06T15:12:08.085Z,5.17
2022-12-06T15:14:55.168Z,6.20
2022-12-06T15:17:43.034Z,6.53
2022-12-06T15:20:30.121Z,5.03
2022-12-06T15:23:36.965Z,4.50
2022-12-06T15:26:24.819Z,4.77
2022-12-06T15:29:11.978Z,5.20
2022-12-06T15:31:59.471Z,5.63
2022-12-06T15:34:47.105Z,5.80
2022-12-06T15:37:39.070Z,4.87
2022-12-06T15:40:27.037Z,5.57
2022-12-06T15:43:26.159Z,5.97
2022-12-06T15:46:23.881Z,6.00
2022-12-06T15:49:27.694Z,6.17
2022-12-06T15:52:21.767Z,7.00
2022-12-06T15:55:16.981Z,6.87
2022-12-06T15:58:04.026Z,6.00
2022-12-06T16:49:45.153Z,9.27
2022-12-06T16:52:30.234Z,9.03
2022-12-06T16:55:18.787Z,10.10
2022-12-06T16:58:06.446Z,11.20
2022-12-06T17:00:54.083Z,10.63
2022-12-06T17:03:41.308Z,8.90
2022-12-06T17:06:30.922Z,8.30
2022-12-06T17:09:18.617Z,8.70
2022-12-06T17:12:12.790Z,9.40
2022-12-06T17:15:01.044Z,9.80
2022-12-06T17:17:49.739Z,8.17
2022-12-06T17:20:37.294Z,7.90
2022-12-06T17:23:24.720Z,7.67
2022-12-06T17:26:12.176Z,10.53
2022-12-06T17:29:00.297Z,11.00
2022-12-06T17:31:47.549Z,11.20
2022-12-06T17:34:35.551Z,7.57
2022-12-06T17:37:22.719Z,7.70
2022-12-06T17:40:10.316Z,9.13
2022-12-06T17:43:00.484Z,7.73
2022-12-06T17:45:47.641Z,8.20
2022-12-06T17:48:37.924Z,7.97
2022-12-06T17:51:28.297Z,8.10
2022-12-06T17:54:16.214Z,7.37
2022-12-06T17:57:03.548Z,7.60
2022-12-06T17:59:50.699Z,8.10
2022-12-06T18:02:37.983Z,7.90
2022-12-06T18:05:25.214Z,7.70
2022-12-06T18:08:12.356Z,7.73
2022-12-06T18:11:00.826Z,8.10
2022-12-06T18:13:48.158Z,6.83
2022-12-06T18:16:37.854Z,7.37
2022-12-06T18:19:25.780Z,8.00
2022-12-06T18:22:12.900Z,8.50
2022-12-06T18:25:00.532Z,7.07
2022-12-06T18:27:49.022Z,6.83
2022-12-06T18:30:36.476Z,7.80
2022-12-06T18:33:28.044Z,8.80
2022-12-06T18:36:19.637Z,7.30
2022-12-06T18:39:14.404Z,7.67
2022-12-06T18:42:02.360Z,7.67
2022-12-06T18:44:53.589Z,8.20
2022-12-06T18:47:43.743Z,8.50
2022-12-06T18:50:31.257Z,9.30
2022-12-06T18:53:19.452Z,9.23
2022-12-06T18:56:19.389Z,9.40
2022-12-06T18:59:08.902Z,9.20
2022-12-06T19:01:56.631Z,10.63
2022-12-06T19:04:43.912Z,8.83
2022-12-06T19:07:31.028Z,9.93
2022-12-06T19:10:18.281Z,10.00
2022-12-06T19:13:06.091Z,12.23
2022-12-06T19:16:00.404Z,10.10
2022-12-06T19:18:48.728Z,10.27
2022-12-06T19:21:36.162Z,10.03
2022-12-06T19:24:25.540Z,10.20
2022-12-06T19:27:12.782Z,10.40
2022-12-06T19:30:00.158Z,10.23
2022-12-06T19:32:47.483Z,11.70
2022-12-06T19:35:34.763Z,11.00
2022-12-06T19:38:21.845Z,10.53
2022-12-06T19:41:13.476Z,10.60
2022-12-06T19:44:15.946Z,12.43
2022-12-06T19:47:03.443Z,11.87
2022-12-06T19:49:50.557Z,10.17
2022-12-06T19:52:38.096Z,10.90
2022-12-06T19:55:25.609Z,11.57
2022-12-06T19:58:12.989Z,11.43
2022-12-06T20:01:00.540Z,11.20
2022-12-06T20:03:48.252Z,11.77
2022-12-06T20:06:36.798Z,12.30
2022-12-06T20:09:27.068Z,12.20
2022-12-06T20:12:15.380Z,10.53
2022-12-06T20:15:02.715Z,11.07
2022-12-06T20:17:49.953Z,11.10
2022-12-06T20:20:37.352Z,12.20
2022-12-06T20:23:24.828Z,10.87
2022-12-06T20:26:15.139Z,12.43
2022-12-06T20:29:02.396Z,11.00
2022-12-06T20:31:51.339Z,11.93
2022-12-06T20:34:38.485Z,12.30
2022-12-06T20:37:25.760Z,12.07
2022-12-06T20:40:13.324Z,13.00
2022-12-06T20:43:00.818Z,12.37
2022-12-06T20:45:47.940Z,10.90
2022-12-06T20:48:36.512Z,12.60
2022-12-06T20:51:27.459Z,12.47
2022-12-06T20:54:14.617Z,12.00
2022-12-06T20:57:06.441Z,11.57
2022-12-06T20:59:53.595Z,12.13
2022-12-06T21:02:40.858Z,12.20
2022-12-06T21:05:28.068Z,11.33
2022-12-06T21:08:15.294Z,12.00
2022-12-06T21:14:12.914Z,13.10
2022-12-06T21:17:00.335Z,11.83
2022-12-06T21:19:47.438Z,12.30
2022-12-06T21:22:34.634Z,11.07
2022-12-06T21:25:21.785Z,12.50
2022-12-06T21:28:09.010Z,12.90
2022-12-06T21:30:56.819Z,11.17
2022-12-06T21:33:44.182Z,12.30
2022-12-06T21:36:32.074Z,12.43
2022-12-06T21:39:19.342Z,12.13
2022-12-06T21:42:06.523Z,11.20
2022-12-06T21:44:56.484Z,11.47
2022-12-06T21:47:43.713Z,12.77
2022-12-06T21:50:30.936Z,11.67
2022-12-06T21:53:18.355Z,12.50
2022-12-06T21:56:07.702Z,13.13
2022-12-06T21:58:55.259Z,12.33
2022-12-06T22:01:42.396Z,13.40
2022-12-06T22:04:29.696Z,12.13
2022-12-06T22:07:17.085Z,12.37
2022-12-06T22:10:04.870Z,11.30
2022-12-06T22:12:52.037Z,12.27
2022-12-06T22:15:39.453Z,12.37
2022-12-06T22:18:26.663Z,11.53
2022-12-06T22:21:19.939Z,11.70
2022-12-06T22:24:07.754Z,12.70
2022-12-06T22:26:54.910Z,12.60
2022-12-06T22:29:42.039Z,12.67
2022-12-06T22:32:29.144Z,13.13
2022-12-06T22:35:17.048Z,12.33
2022-12-06T22:38:04.366Z,12.20
2022-12-06T22:40:57.868Z,11.97
2022-12-06T22:43:45.492Z,11.63
2022-12-06T22:46:34.519Z,12.90
2022-12-06T22:49:21.864Z,13.20
2022-12-06T22:52:08.958Z,12.37
2022-12-06T22:54:56.126Z,12.23
2022-12-06T22:57:43.227Z,12.03
2022-12-06T23:00:30.484Z,12.90
2022-12-06T23:03:17.601Z,13.07
2022-12-06T23:06:05.226Z,11.37
2022-12-06T23:08:53.468Z,12.27
2022-12-06T23:11:40.630Z,13.13
2022-12-06T23:14:27.852Z,13.00
2022-12-06T23:17:15.069Z,12.50
2022-12-06T23:20:02.610Z,12.10
2022-12-06T23:22:49.955Z,13.20
2022-12-06T23:25:37.695Z,12.23
2022-12-06T23:28:24.862Z,12.23
2022-12-06T23:31:15.892Z,12.27
2022-12-06T23:34:11.081Z,13.37
2022-12-06T23:36:58.231Z,12.33
2022-12-06T23:39:45.753Z,13.80
2022-12-06T23:42:32.890Z,12.77
2022-12-06T23:45:20.021Z,15.40
2022-12-06T23:48:07.325Z,14.77
2022-12-06T23:51:10.826Z,14.70
2022-12-06T23:53:59.671Z,14.63
2022-12-06T23:56:47.035Z,15.77
2022-12-06T23:59:34.264Z,16.07
